Time;durP1;ratioP1;P1;durP2;ratioP2;P2;SDS_P1;SDS_P2;PMS_P1;PMS_P2;Temp;Humidity;BMP_temperature;BMP_pressure;BME280_temperature;BME280_humidity;BME280_pressure;Samples;Min_cycle;Max_cycle;Signal;HPM_P1;HPM_P2
2023/04/28 00:02:15;;;;;;;9.77;5.85;;;6.10;99.90;;;;;;5051739;28;20067;-83
2023/04/28 00:04:41;;;;;;;10.65;5.90;;;6.10;99.90;;;;;;5058520;28;20063;-84
2023/04/28 00:07:07;;;;;;;11.00;5.82;;;6.20;99.90;;;;;;5057984;28;20052;-84
2023/04/28 00:09:33;;;;;;;9.43;5.65;;;6.20;99.90;;;;;;5058167;28;20055;-84
2023/04/28 00:11:58;;;;;;;9.35;5.35;;;6.20;99.90;;;;;;5049648;28;20116;-84
2023/04/28 00:14:24;;;;;;;11.32;5.95;;;6.20;99.90;;;;;;5058162;28;20102;-84
2023/04/28 00:16:50;;;;;;;15.63;7.15;;;6.20;99.90;;;;;;5058135;28;20131;-84
2023/04/28 00:19:16;;;;;;;9.48;5.75;;;6.20;99.90;;;;;;5057631;28;20147;-84
2023/04/28 00:21:41;;;;;;;8.05;5.25;;;6.20;99.90;;;;;;5038121;28;20049;-84
2023/04/28 00:24:07;;;;;;;10.95;5.80;;;6.20;99.90;;;;;;5091489;28;20064;-83
2023/04/28 00:26:33;;;;;;;9.60;5.97;;;6.20;99.90;;;;;;5064818;28;20472;-83
2023/04/28 00:28:59;;;;;;;9.57;5.35;;;6.20;99.90;;;;;;5052052;28;20474;-83
2023/04/28 00:31:24;;;;;;;10.20;5.90;;;6.20;99.90;;;;;;5044946;28;20075;-83
2023/04/28 00:33:50;;;;;;;11.13;6.13;;;6.20;99.90;;;;;;5050602;28;20048;-84
2023/04/28 00:36:16;;;;;;;9.88;5.68;;;6.20;99.90;;;;;;5029620;28;20037;-83
2023/04/28 00:38:41;;;;;;;10.25;6.10;;;6.20;99.90;;;;;;5038685;28;20065;-85
2023/04/28 00:41:10;;;;;;;10.15;5.80;;;6.20;99.90;;;;;;5057941;28;20040;-84
2023/04/28 00:43:49;;;;;;;10.20;5.65;;;6.20;99.90;;;;;;5077127;28;20472;-84
2023/04/28 00:46:28;;;;;;;10.73;5.60;;;6.20;99.90;;;;;;5060948;28;20526;-84
2023/04/28 00:48:54;;;;;;;10.73;6.05;;;6.20;99.90;;;;;;5081971;28;20059;-84
2023/04/28 00:51:20;;;;;;;9.55;5.55;;;6.20;99.90;;;;;;5061251;28;20401;-84
2023/04/28 00:53:46;;;;;;;10.80;5.60;;;6.20;99.90;;;;;;5061264;28;20044;-84
2023/04/28 00:56:12;;;;;;;9.27;5.63;;;6.30;99.90;;;;;;5054837;28;20639;-84
2023/04/28 00:58:38;;;;;;;12.57;6.38;;;6.20;99.90;;;;;;5078854;28;20130;-84
2023/04/28 01:01:05;;;;;;;10.10;5.65;;;6.20;99.90;;;;;;5085737;28;20047;-84
2023/04/28 01:03:40;;;;;;;11.95;6.85;;;6.20;99.90;;;;;;5042789;28;20117;-86
2023/04/28 01:06:07;;;;;;;10.18;6.13;;;6.20;99.90;;;;;;5027881;28;20064;-85
2023/04/28 01:08:35;;;;;;;10.88;6.07;;;6.30;99.90;;;;;;5074969;28;20496;-85
2023/04/28 01:11:01;;;;;;;10.50;6.75;;;6.20;99.90;;;;;;5068814;28;20044;-84
2023/04/28 01:13:27;;;;;;;11.70;6.85;;;6.20;99.90;;;;;;5050844;28;20044;-84
2023/04/28 01:15:54;;;;;;;12.55;7.22;;;6.30;99.90;;;;;;5060735;28;20048;-84
2023/04/28 01:18:20;;;;;;;11.75;6.68;;;6.20;99.90;;;;;;5060919;28;20132;-84
2023/04/28 01:20:46;;;;;;;13.95;7.25;;;6.20;99.90;;;;;;5054400;28;20060;-86
2023/04/28 01:23:12;;;;;;;16.02;6.75;;;6.20;99.90;;;;;;5076441;28;20050;-85
2023/04/28 01:25:38;;;;;;;14.93;7.63;;;6.20;99.90;;;;;;5043531;28;20435;-85
2023/04/28 01:28:04;;;;;;;11.70;6.75;;;6.30;99.90;;;;;;5062280;28;20044;-84
2023/04/28 01:30:30;;;;;;;13.15;7.32;;;6.30;99.90;;;;;;5060190;28;20040;-85
2023/04/28 01:32:56;;;;;;;14.77;7.78;;;6.20;99.90;;;;;;5052964;28;20074;-87
2023/04/28 01:35:21;;;;;;;11.48;7.20;;;6.30;99.90;;;;;;5060726;28;20058;-85
2023/04/28 01:37:47;;;;;;;16.35;7.53;;;6.20;99.90;;;;;;5059573;28;20040;-84
2023/04/28 01:40:13;;;;;;;14.27;7.72;;;6.30;99.90;;;;;;5062683;28;20444;-84
2023/04/28 01:42:39;;;;;;;16.88;7.03;;;6.20;99.90;;;;;;5090418;28;20118;-84
2023/04/28 01:45:05;;;;;;;13.50;7.57;;;6.20;99.90;;;;;;5057305;28;20510;-85
2023/04/28 01:47:31;;;;;;;13.55;7.72;;;6.10;99.90;;;;;;5059492;28;20052;-84
2023/04/28 01:49:57;;;;;;;14.30;7.97;;;6.10;99.90;;;;;;5083491;28;20050;-85
2023/04/28 01:52:23;;;;;;;13.65;7.70;;;6.10;99.90;;;;;;5052214;28;20047;-84
2023/04/28 01:54:49;;;;;;;14.95;7.07;;;6.00;99.90;;;;;;5058014;28;20097;-84
2023/04/28 01:57:15;;;;;;;15.35;7.90;;;6.00;99.90;;;;;;5051203;28;20052;-84
2023/04/28 01:59:41;;;;;;;14.57;7.97;;;6.00;99.90;;;;;;5052285;28;20055;-84
2023/04/28 02:02:07;;;;;;;17.90;7.90;;;6.00;99.90;;;;;;5075128;28;20130;-85
2023/04/28 02:04:32;;;;;;;13.27;7.80;;;6.00;99.90;;;;;;5076199;28;20044;-84
2023/04/28 02:06:58;;;;;;;13.98;7.60;;;6.00;99.90;;;;;;5054220;28;20060;-84
2023/04/28 02:09:24;;;;;;;15.75;8.15;;;6.00;99.90;;;;;;5073305;28;20472;-84
2023/04/28 02:11:50;;;;;;;13.80;8.18;;;5.90;99.90;;;;;;5075163;28;20046;-86
2023/04/28 02:14:16;;;;;;;14.50;7.95;;;5.90;99.90;;;;;;5073839;28;20040;-84
2023/04/28 02:16:42;;;;;;;13.98;7.85;;;5.90;99.90;;;;;;5058442;28;20039;-84
2023/04/28 02:19:07;;;;;;;16.25;8.48;;;5.90;99.90;;;;;;5041718;28;20127;-84
2023/04/28 02:21:33;;;;;;;15.48;8.00;;;5.90;99.90;;;;;;5042529;28;20048;-84
2023/04/28 02:23:59;;;;;;;14.55;8.13;;;5.80;99.90;;;;;;5075542;28;20076;-85
2023/04/28 02:26:24;;;;;;;13.20;8.05;;;5.80;99.90;;;;;;5058751;28;20067;-84
2023/04/28 02:28:50;;;;;;;19.08;8.07;;;5.80;99.90;;;;;;5042655;28;20044;-86
2023/04/28 02:31:16;;;;;;;16.83;7.60;;;5.80;99.90;;;;;;5068126;28;20099;-84
2023/04/28 02:33:42;;;;;;;19.05;8.60;;;5.80;99.90;;;;;;5053540;28;20493;-85
2023/04/28 02:36:08;;;;;;;15.68;7.97;;;5.80;99.90;;;;;;5057079;28;20087;-85
2023/04/28 02:38:34;;;;;;;15.38;8.57;;;5.80;99.90;;;;;;5056978;28;20040;-84
2023/04/28 02:41:03;;;;;;;15.23;8.43;;;5.90;99.90;;;;;;5065229;28;20136;-85
2023/04/28 02:43:30;;;;;;;16.13;9.02;;;5.90;99.90;;;;;;5055025;28;20048;-83
2023/04/28 02:45:56;;;;;;;15.88;9.23;;;5.90;99.90;;;;;;5058306;28;20477;-85
2023/04/28 02:48:23;;;;;;;16.67;7.95;;;5.90;99.90;;;;;;5057988;28;20059;-84
2023/04/28 02:50:49;;;;;;;18.13;9.25;;;5.90;99.90;;;;;;5058672;28;20131;-85
2023/04/28 02:53:15;;;;;;;17.90;10.48;;;5.80;99.90;;;;;;5069122;28;20049;-85
2023/04/28 02:55:41;;;;;;;15.70;8.35;;;5.70;99.90;;;;;;5059312;28;20056;-83
2023/04/28 02:58:07;;;;;;;17.98;9.35;;;5.70;99.90;;;;;;5063984;28;20047;-85
2023/04/28 03:00:32;;;;;;;17.40;8.63;;;5.60;99.90;;;;;;5046163;28;20485;-82
2023/04/28 03:02:58;;;;;;;16.60;9.45;;;5.50;99.90;;;;;;5049033;28;20044;-83
2023/04/28 03:05:24;;;;;;;17.27;9.13;;;5.50;99.90;;;;;;5046818;28;20051;-82
2023/04/28 03:07:51;;;;;;;17.50;9.52;;;5.50;99.90;;;;;;5075484;28;20058;-82
2023/04/28 03:10:16;;;;;;;17.50;9.02;;;5.50;99.90;;;;;;5042221;28;20040;-83
2023/04/28 03:12:42;;;;;;;21.00;9.45;;;5.50;99.90;;;;;;5042656;28;20051;-82
2023/04/28 03:15:08;;;;;;;17.88;9.60;;;5.50;99.90;;;;;;5042803;28;20051;-82
2023/04/28 03:17:37;;;;;;;21.27;10.77;;;5.60;99.90;;;;;;5074346;28;20061;-82
2023/04/28 03:20:04;;;;;;;20.10;9.63;;;5.50;99.90;;;;;;5040907;28;20036;-83
2023/04/28 03:22:30;;;;;;;18.33;10.13;;;5.60;99.90;;;;;;5066313;28;20126;-83
2023/04/28 03:24:56;;;;;;;21.08;11.20;;;5.70;99.90;;;;;;5057831;28;20067;-83
2023/04/28 03:27:22;;;;;;;19.88;9.85;;;5.70;99.90;;;;;;5065468;28;20047;-82
2023/04/28 03:29:48;;;;;;;18.42;9.95;;;5.70;99.90;;;;;;5047978;28;20047;-83
2023/04/28 03:32:13;;;;;;;21.05;10.35;;;5.70;99.90;;;;;;5080631;28;20044;-88
2023/04/28 03:34:39;;;;;;;20.80;10.38;;;5.80;99.90;;;;;;5081737;28;20081;-83
2023/04/28 03:37:05;;;;;;;20.30;10.38;;;5.80;99.90;;;;;;5031583;28;20044;-85
2023/04/28 03:39:31;;;;;;;20.63;10.90;;;5.80;99.90;;;;;;5055217;28;20051;-83
2023/04/28 03:41:56;;;;;;;18.42;10.48;;;5.80;99.90;;;;;;5056567;28;20036;-83
2023/04/28 03:44:22;;;;;;;21.98;10.77;;;5.90;99.90;;;;;;5065722;28;20047;-83
2023/04/28 03:46:49;;;;;;;23.27;10.60;;;5.90;99.90;;;;;;5071292;28;20174;-83
2023/04/28 03:49:15;;;;;;;24.17;10.48;;;5.90;99.90;;;;;;5057598;28;20120;-83
2023/04/28 03:51:40;;;;;;;19.77;9.90;;;5.90;99.90;;;;;;5074818;28;20047;-82
2023/04/28 03:54:06;;;;;;;22.25;10.80;;;5.90;99.90;;;;;;5041878;28;20040;-82
2023/04/28 03:56:33;;;;;;;18.67;9.52;;;5.90;99.90;;;;;;5062828;28;20130;-82
2023/04/28 03:58:58;;;;;;;21.85;10.82;;;5.80;99.90;;;;;;5084586;28;20397;-82
2023/04/28 04:01:24;;;;;;;22.38;10.75;;;5.90;99.90;;;;;;5072104;28;20073;-83
2023/04/28 04:03:50;;;;;;;21.80;11.02;;;5.90;99.90;;;;;;5095845;28;20526;-82
2023/04/28 04:06:16;;;;;;;20.05;9.93;;;5.90;99.90;;;;;;5078532;28;20485;-82
2023/04/28 04:08:42;;;;;;;21.00;10.82;;;5.90;99.90;;;;;;5058271;28;20059;-82
2023/04/28 04:11:08;;;;;;;19.73;10.95;;;5.90;99.90;;;;;;5061856;28;20043;-82
2023/04/28 04:13:34;;;;;;;21.25;10.65;;;5.80;99.90;;;;;;5064074;28;20424;-82
2023/04/28 04:16:00;;;;;;;19.75;10.68;;;5.90;99.90;;;;;;5056941;28;20574;-82
2023/04/28 04:18:26;;;;;;;22.27;11.10;;;5.80;99.90;;;;;;5058004;28;20037;-83
2023/04/28 04:20:56;;;;;;;23.73;11.38;;;5.90;99.90;;;;;;5074062;28;20060;-82
2023/04/28 04:23:22;;;;;;;22.83;11.65;;;5.90;99.90;;;;;;5041752;28;20056;-85
2023/04/28 04:25:48;;;;;;;21.33;11.20;;;5.90;99.90;;;;;;5042106;28;20048;-82
2023/04/28 04:28:14;;;;;;;21.38;11.30;;;6.00;99.90;;;;;;5058936;28;20131;-83
2023/04/28 04:30:40;;;;;;;19.90;10.57;;;6.00;99.90;;;;;;5057670;28;20187;-82
2023/04/28 04:33:06;;;;;;;23.52;10.98;;;6.00;99.90;;;;;;5068512;28;20044;-83
2023/04/28 04:35:32;;;;;;;20.92;10.45;;;6.00;99.90;;;;;;5058085;28;20071;-82
2023/04/28 04:37:58;;;;;;;21.80;11.05;;;6.10;99.90;;;;;;5087016;28;20045;-82
2023/04/28 04:40:24;;;;;;;23.08;11.35;;;6.00;99.90;;;;;;5055365;28;20059;-83
2023/04/28 04:42:50;;;;;;;23.48;11.20;;;6.10;99.90;;;;;;5078180;28;20040;-83
2023/04/28 04:45:16;;;;;;;22.58;11.07;;;6.10;99.90;;;;;;5062455;28;20474;-82
2023/04/28 04:47:42;;;;;;;21.67;11.60;;;6.10;99.90;;;;;;5057374;28;20131;-83
2023/04/28 04:50:09;;;;;;;21.13;11.13;;;6.10;99.90;;;;;;5070194;28;20040;-83
2023/04/28 04:52:36;;;;;;;21.00;10.45;;;6.10;99.90;;;;;;5057213;28;20501;-83
2023/04/28 04:55:02;;;;;;;24.42;11.07;;;6.10;99.90;;;;;;5074162;28;20049;-83
2023/04/28 04:57:27;;;;;;;19.17;10.05;;;6.10;99.90;;;;;;5074520;28;20131;-84
2023/04/28 04:59:53;;;;;;;20.90;10.38;;;6.10;99.90;;;;;;5052856;28;20085;-83
2023/04/28 05:02:19;;;;;;;19.67;11.38;;;6.10;99.90;;;;;;5072604;28;20072;-83
2023/04/28 05:04:45;;;;;;;20.55;10.93;;;6.10;99.90;;;;;;5067140;28;20490;-83
2023/04/28 05:07:10;;;;;;;20.23;10.73;;;6.20;99.90;;;;;;5074263;28;20083;-84
2023/04/28 05:09:36;;;;;;;21.33;11.02;;;6.20;99.90;;;;;;5048124;28;20088;-84
2023/04/28 05:12:02;;;;;;;23.25;12.15;;;6.30;99.90;;;;;;5035109;28;20045;-83
2023/04/28 05:14:28;;;;;;;22.17;11.27;;;6.30;99.90;;;;;;5035777;28;20071;-88
2023/04/28 05:16:53;;;;;;;20.65;11.25;;;6.30;99.90;;;;;;5044424;28;20064;-82
2023/04/28 05:19:19;;;;;;;20.88;10.63;;;6.40;99.90;;;;;;5017086;28;20041;-81
2023/04/28 05:21:46;;;;;;;21.05;11.50;;;6.40;99.90;;;;;;5019823;28;20044;-84
2023/04/28 05:24:13;;;;;;;20.02;11.18;;;6.40;99.90;;;;;;5017488;28;20423;-83
2023/04/28 05:26:39;;;;;;;22.13;11.10;;;6.40;99.90;;;;;;5038195;28;20037;-82
2023/04/28 05:29:05;;;;;;;21.33;11.25;;;6.50;99.90;;;;;;5070308;28;20048;-84
2023/04/28 05:31:31;;;;;;;20.27;10.85;;;6.50;99.90;;;;;;5058443;28;20064;-89
2023/04/28 05:33:57;;;;;;;20.08;11.20;;;6.50;99.90;;;;;;5052019;28;20079;-83
2023/04/28 05:36:23;;;;;;;24.50;11.45;;;6.50;99.90;;;;;;5067838;28;20048;-83
2023/04/28 05:38:49;;;;;;;22.45;11.63;;;6.60;99.90;;;;;;5070163;28;20044;-83
2023/04/28 05:41:15;;;;;;;24.42;11.77;;;6.70;99.90;;;;;;5067958;28;20070;-83
2023/04/28 05:43:41;;;;;;;21.30;10.30;;;6.70;99.90;;;;;;5035501;28;20093;-83
2023/04/28 05:46:06;;;;;;;20.02;11.27;;;6.80;99.90;;;;;;5032750;28;20097;-81
2023/04/28 05:48:32;;;;;;;23.58;11.23;;;6.80;99.90;;;;;;5048866;28;20044;-84
2023/04/28 05:50:58;;;;;;;23.80;11.18;;;6.90;99.90;;;;;;5051527;28;20055;-84
2023/04/28 05:53:23;;;;;;;20.80;10.98;;;7.00;99.90;;;;;;5052194;28;20079;-84
2023/04/28 05:55:49;;;;;;;22.85;10.75;;;7.10;99.90;;;;;;5033086;28;20045;-82
2023/04/28 05:58:15;;;;;;;23.88;11.10;;;7.10;99.90;;;;;;5030878;28;20056;-84
2023/04/28 06:00:41;;;;;;;18.60;10.13;;;7.10;99.90;;;;;;5050662;28;20517;-83
2023/04/28 06:03:09;;;;;;;21.67;9.82;;;7.20;99.90;;;;;;5041890;28;20040;-82
2023/04/28 06:05:36;;;;;;;21.90;10.48;;;7.20;99.90;;;;;;5041096;28;20051;-85
2023/04/28 06:08:02;;;;;;;18.70;10.30;;;7.30;99.90;;;;;;5064241;28;20152;-84
2023/04/28 06:10:28;;;;;;;21.95;10.80;;;7.40;99.90;;;;;;5061937;28;20105;-84
2023/04/28 06:12:53;;;;;;;20.35;10.43;;;7.50;99.90;;;;;;5068899;28;20056;-84
2023/04/28 06:15:19;;;;;;;19.55;10.50;;;7.50;99.90;;;;;;5060225;28;20414;-84
2023/04/28 06:17:45;;;;;;;18.08;10.90;;;7.60;99.90;;;;;;5057909;28;20046;-84
2023/04/28 06:20:12;;;;;;;18.52;10.30;;;7.70;99.90;;;;;;5043568;28;20051;-85
2023/04/28 06:22:39;;;;;;;20.20;10.88;;;7.70;99.90;;;;;;5046011;28;20056;-87
2023/04/28 06:25:05;;;;;;;19.27;10.05;;;7.60;99.90;;;;;;5054430;28;20048;-85
2023/04/28 06:27:31;;;;;;;18.52;10.15;;;7.50;99.90;;;;;;5036273;28;20044;-84
2023/04/28 06:30:00;;;;;;;16.83;9.52;;;7.50;99.90;;;;;;5069472;28;20052;-84
2023/04/28 06:32:26;;;;;;;17.38;9.80;;;7.40;99.90;;;;;;5055421;28;20527;-85
2023/04/28 06:34:52;;;;;;;16.48;9.75;;;7.30;99.90;;;;;;5036205;28;20040;-85
2023/04/28 06:37:17;;;;;;;17.27;9.32;;;7.30;99.90;;;;;;5018925;28;20486;-84
2023/04/28 06:39:43;;;;;;;19.33;10.82;;;7.30;99.90;;;;;;5064680;28;20048;-85
2023/04/28 06:42:09;;;;;;;22.60;10.93;;;7.40;99.90;;;;;;5038778;28;20048;-84
2023/04/28 06:44:35;;;;;;;23.15;10.15;;;7.40;99.90;;;;;;5058290;28;20052;-84
2023/04/28 06:47:00;;;;;;;17.90;9.45;;;7.50;99.90;;;;;;5025882;28;20044;-84
2023/04/28 06:49:26;;;;;;;19.73;9.80;;;7.50;99.90;;;;;;5067472;28;20048;-85
2023/04/28 06:51:52;;;;;;;16.10;9.02;;;7.60;99.90;;;;;;5034400;28;20045;-85
2023/04/28 06:54:18;;;;;;;19.38;10.63;;;7.70;99.90;;;;;;5054334;28;20047;-84
2023/04/28 06:56:43;;;;;;;17.85;10.00;;;7.80;99.90;;;;;;5071938;28;20054;-85
2023/04/28 06:59:09;;;;;;;19.30;10.30;;;7.80;99.90;;;;;;5054940;28;20056;-84
2023/04/28 07:01:35;;;;;;;20.17;10.35;;;7.80;99.90;;;;;;5063672;28;20044;-84
2023/04/28 07:04:01;;;;;;;19.67;10.13;;;7.90;99.90;;;;;;5054872;28;20079;-84
2023/04/28 07:06:27;;;;;;;16.13;9.45;;;8.10;99.90;;;;;;5057193;28;20044;-84
2023/04/28 07:08:53;;;;;;;18.38;10.23;;;8.20;99.90;;;;;;5071290;28;20404;-84
2023/04/28 07:11:19;;;;;;;20.83;9.65;;;8.30;99.90;;;;;;5055381;28;20044;-85
2023/04/28 07:13:49;;;;;;;20.45;10.02;;;8.50;99.90;;;;;;5044441;28;20041;-86
2023/04/28 07:16:15;;;;;;;16.70;10.23;;;8.60;99.90;;;;;;5071664;28;20044;-84
2023/04/28 07:18:40;;;;;;;19.08;10.48;;;8.70;99.90;;;;;;5085846;28;20054;-84
2023/04/28 07:21:06;;;;;;;16.23;9.77;;;8.80;99.90;;;;;;5039256;28;20044;-85
2023/04/28 07:23:32;;;;;;;16.17;9.38;;;8.90;99.90;;;;;;5055956;28;20044;-84
2023/04/28 07:25:57;;;;;;;17.63;9.70;;;9.10;99.90;;;;;;5055836;28;20075;-84
2023/04/28 07:28:23;;;;;;;17.77;9.05;;;9.20;99.90;;;;;;5058569;28;20043;-84
2023/04/28 07:30:49;;;;;;;14.70;8.40;;;9.30;99.90;;;;;;5062834;28;20290;-85
2023/04/28 07:33:15;;;;;;;17.42;9.50;;;9.50;99.90;;;;;;5038673;28;20068;-84
2023/04/28 07:35:40;;;;;;;15.82;8.90;;;9.70;99.90;;;;;;5074615;28;20051;-85
2023/04/28 07:38:06;;;;;;;17.15;9.35;;;9.80;99.90;;;;;;5089048;28;20052;-84
2023/04/28 07:40:32;;;;;;;15.32;9.35;;;10.00;99.90;;;;;;5076605;28;20055;-85
2023/04/28 07:42:57;;;;;;;15.82;8.40;;;10.10;99.90;;;;;;5076677;28;20039;-84
2023/04/28 07:45:23;;;;;;;15.50;9.00;;;10.20;99.90;;;;;;5059852;28;20104;-84
2023/04/28 07:47:49;;;;;;;15.40;9.15;;;10.30;99.00;;;;;;5076080;28;20047;-85
2023/04/28 07:50:16;;;;;;;15.23;8.30;;;10.30;93.70;;;;;;5059756;28;20108;-84
2023/04/28 07:52:42;;;;;;;11.35;7.75;;;10.40;94.70;;;;;;5075773;28;20523;-84
2023/04/28 07:55:08;;;;;;;14.88;8.45;;;10.50;91.90;;;;;;5059551;28;20138;-84
2023/04/28 07:57:34;;;;;;;14.00;8.30;;;10.50;88.60;;;;;;5081091;28;20126;-83
2023/04/28 08:00:00;;;;;;;16.63;9.40;;;10.60;80.50;;;;;;5067516;28;20047;-85
2023/04/28 08:02:26;;;;;;;17.65;8.90;;;10.60;76.20;;;;;;5059069;28;20040;-85
2023/04/28 08:04:52;;;;;;;13.77;8.80;;;10.80;70.50;;;;;;5073385;28;20066;-85
2023/04/28 08:07:17;;;;;;;13.10;8.40;;;10.90;65.50;;;;;;5066049;28;20047;-84
2023/04/28 08:09:46;;;;;;;13.02;7.25;;;11.20;54.20;;;;;;5050960;28;20048;-82
2023/04/28 08:12:13;;;;;;;12.25;8.30;;;11.30;50.40;;;;;;5051170;28;20056;-82
2023/04/28 08:14:39;;;;;;;13.98;8.23;;;11.40;22.60;;;;;;5053163;28;20052;-84
2023/04/28 08:17:05;;;;;;;13.68;8.13;;;11.40;10.00;;;;;;5054750;28;20444;-84
2023/04/28 08:19:30;;;;;;;13.82;7.75;;;11.50;14.30;;;;;;5083552;28;20037;-84
2023/04/28 08:21:56;;;;;;;14.38;7.57;;;11.70;16.20;;;;;;5054848;28;20076;-88
2023/04/28 08:24:22;;;;;;;13.82;8.27;;;11.90;9.20;;;;;;5052696;28;20095;-86
2023/04/28 08:26:48;;;;;;;10.85;7.53;;;12.10;4.00;;;;;;5027017;28;20040;-85
2023/04/28 08:29:13;;;;;;;12.70;7.63;;;12.30;1.60;;;;;;5049834;28;20047;-82
2023/04/28 08:31:39;;;;;;;12.35;8.18;;;12.40;1.00;;;;;;5054643;28;20049;-83
2023/04/28 08:34:05;;;;;;;11.43;8.10;;;12.30;1.00;;;;;;5055920;28;20132;-82
2023/04/28 08:36:32;;;;;;;11.88;7.72;;;12.10;1.00;;;;;;5049531;28;20044;-84
2023/04/28 08:38:59;;;;;;;14.20;7.95;;;11.90;1.00;;;;;;5056185;28;20080;-87
2023/04/28 08:41:26;;;;;;;13.40;7.78;;;11.70;16.10;;;;;;5045734;28;20053;-82
2023/04/28 08:43:53;;;;;;;13.75;8.52;;;11.30;33.30;;;;;;5050892;28;20047;-83
2023/04/28 08:46:21;;;;;;;12.63;7.72;;;10.90;72.70;;;;;;5061095;28;20032;-84
2023/04/28 08:48:48;;;;;;;14.38;8.68;;;10.60;94.70;;;;;;5060404;28;20052;-84
2023/04/28 08:51:19;;;;;;;14.30;8.05;;;10.30;99.90;;;;;;5041723;28;20048;-82
2023/04/28 08:53:52;;;;;;;14.52;8.48;;;10.10;99.90;;;;;;5073457;28;20097;-84
2023/04/28 08:56:20;;;;;;;15.02;8.70;;;10.10;99.90;;;;;;5050528;28;20120;-85
2023/04/28 08:58:45;;;;;;;14.40;8.10;;;10.00;99.90;;;;;;5054617;28;20493;-82
2023/04/28 09:01:11;;;;;;;13.77;8.07;;;10.10;99.90;;;;;;5053805;28;20040;-83
2023/04/28 09:03:37;;;;;;;15.30;8.63;;;10.10;99.90;;;;;;5051684;28;20098;-82
2023/04/28 09:06:02;;;;;;;12.55;7.95;;;10.20;99.90;;;;;;5042541;28;20060;-87
2023/04/28 09:08:28;;;;;;;13.23;8.40;;;10.40;99.90;;;;;;5056612;28;20048;-81
2023/04/28 09:11:12;;;;;;;13.90;9.07;;;10.60;99.90;;;;;;5046772;28;20102;-81
2023/04/28 09:13:38;;;;;;;16.75;8.75;;;10.80;99.90;;;;;;5055786;28;20044;-81
2023/04/28 09:16:05;;;;;;;11.65;8.30;;;11.30;99.90;;;;;;5062789;28;20037;-83
2023/04/28 09:18:32;;;;;;;15.25;8.85;;;11.70;99.90;;;;;;5059481;28;20045;-81
2023/04/28 09:21:08;;;;;;;11.75;8.30;;;11.90;99.90;;;;;;5076178;28;20122;-82
2023/04/28 09:23:50;;;;;;;13.05;8.52;;;11.90;99.90;;;;;;5051640;28;20478;-81
2023/04/28 09:26:16;;;;;;;13.35;8.05;;;12.00;99.90;;;;;;5040552;28;20048;-81
2023/04/28 09:28:42;;;;;;;11.98;7.93;;;12.10;99.90;;;;;;5076736;28;20119;-82
2023/04/28 09:31:26;;;;;;;12.55;8.10;;;12.30;99.90;;;;;;5038311;28;20087;-82
2023/04/28 09:33:59;;;;;;;13.95;8.70;;;12.40;99.90;;;;;;5069471;28;20052;-82
2023/04/28 09:36:29;;;;;;;15.55;8.10;;;12.40;99.90;;;;;;5053383;28;20079;-81
2023/04/28 09:38:59;;;;;;;13.43;8.02;;;12.40;99.90;;;;;;5068949;28;20383;-81
2023/04/28 09:41:39;;;;;;;12.05;8.15;;;12.40;99.90;;;;;;5076328;28;20059;-82
2023/04/28 09:44:20;;;;;;;16.60;8.35;;;12.60;99.90;;;;;;5070747;28;20405;-86
2023/04/28 09:46:46;;;;;;;11.77;8.15;;;12.80;99.90;;;;;;5064805;28;20052;-81
2023/04/28 09:49:14;;;;;;;10.93;7.57;;;13.10;99.90;;;;;;5070363;28;20048;-82
2023/04/28 09:51:40;;;;;;;10.63;8.18;;;13.70;99.90;;;;;;5057425;28;20401;-82
2023/04/28 09:54:06;;;;;;;14.43;8.05;;;14.70;63.10;;;;;;5027180;28;20048;-87
2023/04/28 09:56:37;;;;;;;10.95;7.53;;;15.50;11.10;;;;;;5045638;28;20040;-82
2023/04/28 09:59:02;;;;;;;10.55;7.78;;;15.90;1.00;;;;;;5069334;28;20058;-82
2023/04/28 10:01:40;;;;;;;9.00;6.88;;;16.50;1.00;;;;;;5081429;28;20056;-82
2023/04/28 10:04:06;;;;;;;11.32;7.60;;;16.80;1.00;;;;;;5071778;28;20040;-86
2023/04/28 10:06:35;;;;;;;9.70;7.00;;;16.80;1.00;;;;;;5047753;28;20529;-81
2023/04/28 10:09:01;;;;;;;8.80;6.70;;;16.50;1.00;;;;;;5054861;28;20048;-83
2023/04/28 10:11:28;;;;;;;11.48;7.40;;;16.20;1.00;;;;;;5058663;28;20037;-82
2023/04/28 10:13:54;;;;;;;9.88;7.30;;;16.10;1.00;;;;;;5064516;28;20062;-82
2023/04/28 10:16:20;;;;;;;9.18;7.00;;;16.40;1.00;;;;;;5053528;28;20048;-82
2023/04/28 10:18:45;;;;;;;10.02;6.68;;;16.60;1.00;;;;;;5046636;28;20063;-85
2023/04/28 10:21:16;;;;;;;9.75;7.03;;;16.60;1.00;;;;;;5065767;28;20740;-83
2023/04/28 10:24:08;;;;;;;10.25;7.68;;;16.60;1.00;;;;;;5059200;28;20501;-83
2023/04/28 10:27:04;;;;;;;9.05;7.03;;;17.00;1.00;;;;;;5047740;28;20101;-81
2023/04/28 10:29:32;;;;;;;10.60;6.93;;;17.30;1.00;;;;;;5066760;28;20048;-83
2023/04/28 10:32:22;;;;;;;10.00;7.25;;;18.40;1.00;;;;;;5071119;28;20048;-83
2023/04/28 10:34:48;;;;;;;9.73;6.75;;;19.80;1.00;;;;;;5051691;28;20063;-83
2023/04/28 10:37:14;;;;;;;9.15;7.38;;;20.00;1.00;;;;;;5069578;28;20043;-84
2023/04/28 10:40:01;;;;;;;8.43;6.72;;;20.00;1.00;;;;;;5069680;28;20072;-83
2023/04/28 10:42:45;;;;;;;;;;;19.70;1.00;;;;;;5069837;28;20094;-84
2023/04/28 10:45:11;;;;;;;11.10;7.10;;;19.40;1.00;;;;;;5056597;28;19967;-84
2023/04/28 10:48:05;;;;;;;12.00;7.20;;;19.10;1.00;;;;;;5051029;28;20087;-83
2023/04/28 10:50:31;;;;;;;9.57;7.03;;;18.70;1.00;;;;;;5027274;28;20053;-84
2023/04/28 10:52:57;;;;;;;10.15;7.07;;;18.20;1.00;;;;;;5047405;28;20035;-84
2023/04/28 10:55:32;;;;;;;9.07;6.57;;;17.90;1.00;;;;;;5063130;28;20056;-83
2023/04/28 10:58:19;;;;;;;8.68;6.35;;;17.50;1.00;;;;;;5069207;28;20044;-83
2023/04/28 11:00:46;;;;;;;9.90;7.45;;;17.20;1.00;;;;;;5069254;28;20053;-84
2023/04/28 11:03:37;;;;;;;10.55;7.35;;;16.80;1.00;;;;;;5051992;28;20116;-83
2023/04/28 11:06:19;;;;;;;10.07;6.85;;;16.50;1.00;;;;;;5064881;28;20131;-84
2023/04/28 11:08:45;;;;;;;9.48;7.03;;;16.40;1.00;;;;;;5069153;28;20122;-83
2023/04/28 11:11:15;;;;;;;10.25;7.53;;;16.40;1.00;;;;;;5035317;28;20489;-84
2023/04/28 11:13:42;;;;;;;11.10;6.97;;;16.40;1.00;;;;;;5053151;28;20087;-85
2023/04/28 11:16:08;;;;;;;13.20;7.82;;;16.40;1.00;;;;;;5053060;28;20098;-83
2023/04/28 11:18:54;;;;;;;12.32;7.60;;;16.40;1.00;;;;;;5052841;28;20048;-83
2023/04/28 11:21:22;;;;;;;11.60;6.45;;;16.40;1.00;;;;;;5068610;28;20080;-85
2023/04/28 11:23:48;;;;;;;8.02;7.10;;;16.40;1.00;;;;;;5053135;28;20049;-86
2023/04/28 11:26:15;;;;;;;9.85;7.20;;;16.50;1.00;;;;;;5063564;28;20087;-83
2023/04/28 11:28:48;;;;;;;9.93;6.80;;;16.60;1.00;;;;;;5059599;28;20513;-83
2023/04/28 11:31:19;;;;;;;9.02;6.75;;;16.70;1.00;;;;;;5061031;28;20059;-82
2023/04/28 11:33:49;;;;;;;8.05;6.25;;;16.70;1.00;;;;;;5050270;28;20127;-82
2023/04/28 11:36:27;;;;;;;12.73;6.68;;;16.60;1.00;;;;;;5067276;28;20097;-83
2023/04/28 11:38:55;;;;;;;8.98;7.25;;;16.30;1.00;;;;;;5070460;28;20056;-83
2023/04/28 11:41:21;;;;;;;8.77;6.88;;;16.10;1.00;;;;;;5049674;28;20482;-86
2023/04/28 11:43:47;;;;;;;10.27;7.53;;;16.00;1.00;;;;;;5036393;28;20371;-84
2023/04/28 11:46:20;;;;;;;12.13;7.40;;;15.90;1.00;;;;;;5068162;28;20078;-84
2023/04/28 11:48:47;;;;;;;9.63;6.75;;;15.90;1.00;;;;;;5046336;28;20056;-85
2023/04/28 11:51:33;;;;;;;11.52;7.57;;;15.90;1.00;;;;;;5044017;28;20044;-84
2023/04/28 11:54:01;;;;;;;10.82;7.72;;;15.80;1.00;;;;;;5043247;28;20049;-84
2023/04/28 11:56:30;;;;;;;10.05;7.30;;;15.80;1.00;;;;;;5049959;28;20048;-84
2023/04/28 11:59:10;;;;;;;9.50;7.45;;;15.80;1.00;;;;;;5051017;28;20048;-85
2023/04/28 12:01:57;;;;;;;11.75;7.78;;;15.90;1.00;;;;;;5067510;28;20124;-85
2023/04/28 12:04:37;;;;;;;10.63;7.43;;;15.90;1.00;;;;;;5056214;28;20049;-85
2023/04/28 12:07:09;;;;;;;11.23;7.25;;;16.00;1.00;;;;;;5049778;28;20048;-85
2023/04/28 12:09:36;;;;;;;11.88;7.55;;;16.10;1.00;;;;;;5071474;28;20060;-84
2023/04/28 12:12:04;;;;;;;10.60;7.68;;;16.10;1.00;;;;;;5050680;28;20056;-83
2023/04/28 12:14:55;;;;;;;12.82;7.75;;;16.20;1.00;;;;;;5063633;28;20052;-83
2023/04/28 12:17:41;;;;;;;9.18;7.70;;;16.20;1.00;;;;;;5047515;28;20490;-84
2023/04/28 12:20:09;;;;;;;10.35;7.65;;;16.20;1.00;;;;;;5066848;28;20044;-88
2023/04/28 12:22:46;;;;;;;9.73;7.40;;;16.20;1.00;;;;;;5069923;28;20327;-83
2023/04/28 12:25:15;;;;;;;10.82;7.45;;;15.90;1.00;;;;;;5065040;28;20552;-83
2023/04/28 12:27:56;;;;;;;12.75;7.95;;;15.70;1.00;;;;;;5055028;28;20040;-83
2023/04/28 12:30:22;;;;;;;12.15;8.02;;;15.60;1.00;;;;;;5069740;28;20611;-84
2023/04/28 12:32:48;;;;;;;11.75;8.30;;;15.50;1.00;;;;;;5072404;28;20052;-84
2023/04/28 12:35:14;;;;;;;11.05;8.23;;;15.50;1.00;;;;;;5035713;28;20041;-84
2023/04/28 12:37:41;;;;;;;11.52;8.45;;;15.50;1.00;;;;;;5070660;28;20449;-84
2023/04/28 12:40:08;;;;;;;11.38;8.60;;;15.40;1.00;;;;;;5052237;28;20107;-83
2023/04/28 12:42:34;;;;;;;11.70;8.75;;;15.30;1.00;;;;;;5078343;28;20075;-84
2023/04/28 12:45:00;;;;;;;14.20;8.90;;;15.00;1.00;;;;;;5045814;28;20048;-83
2023/04/28 12:47:26;;;;;;;12.30;9.07;;;14.80;1.00;;;;;;5048088;28;20103;-85